메인 페이지
METAR-TAF:

METAR-TAF

공항 :

Northwest Florida Regional Airport / Eglin Air Force Base

Valparaiso, 플로리다, 미국

위도: 30-29N, 경도: 086-31W, 고도: 26m

현재 날씨관측

예보는 17분 전, 00:56시(UTC)에 발표되었습니다.
무풍
온도 23°C
습도 83%
기압 1014 hPa
시정: 16.1km
맑음

METAR: KVPS 210056Z AUTO 00000KT 10SM CLR 23/20 A2994 RMK AO2 SLP145 T02260199 $

시각: 20:13 (01:13 UTC)

예보

예보는 8 시간 13분 전, 17:00시(UTC)에 발표되었습니다.
예보 대상 시간: 20일 17시부터 21일 23시까지 (UTC)
9kt
시정: 2018m
고도 2500ft 상공 구름 조금
전환 중
21일 02시부터 21일 03시까지 (UTC)
남남동7kt
시정 10km 이상
고도 2000ft 상공 구름 보통
고도 10000ft 상공 구름 보통
전환 중
21일 14시부터 21일 15시까지 (UTC)
12kt
시정 10km 이상
고도 2500ft 상공 구름 보통
고도 9000ft 상공 구름 많음
고도 25000ft 상공 구름 많음
전환 중
21일 20시부터 21일 21시까지 (UTC)
남남서12kt, 순간 최대 풍속 20kt
시정: 9000m
고도 2500ft 상공 구름 많음, 적란운.
고도 8000ft 상공 구름 많음
고도 20000ft 상공 흐림
약한소나기, 시계 내 뇌우

TAF: KVPS 201700Z 2017/2123 33007KT 9999 FEW025 QNH2990INS WND 18009KT AFT 2018 BECMG 2102/2103 15007KT 9999 SCT020 SCT100 QNH2995INS BECMG 2114/2115 17012KT 9999 SCT025 BKN090 BKN250 QNH2990INS BECMG 2120/2121 20012G20KT 9000 -SHRA VCTS BKN025CB BKN080 OVC200 QNH2985INS TX27/2019Z TN16/2112Z

4,000개 이상의 공항 관측 자료 및 예보 (METAR 및 TAF 보고).

지도상에서 검색 가능한 기상관측소가 노란 점과 빨간 점으로 표시되어 있습니다.

기상관측소 명을 보려면 표시 위로 마우스를 이동하세요.

날씨 관측과 예보를 보려면 클릭하세요.

지도 변경 : 확대하려면 엑스 표시가 있는 녹색 버튼, 축소하려면 빼기 표시가 있는 녹색 버튼, 다음 페이지의 지도를 보려면 녹색 화살표를 클릭하세요.


METAR-TAF: